createdAt,value
2022-10-26T00:05:24.838Z,172.75
2022-10-26T00:10:56.780Z,172.21
2022-10-26T00:16:28.516Z,172.04
2022-10-26T00:22:00.313Z,171.51
2022-10-26T00:27:32.126Z,172.75
2022-10-26T00:33:03.889Z,169.76
2022-10-26T00:38:35.481Z,170.80
2022-10-26T00:44:07.347Z,173.29
2022-10-26T00:49:38.989Z,172.39
2022-10-26T00:55:16.539Z,171.15
2022-10-26T01:00:48.275Z,172.21
2022-10-26T01:06:20.006Z,176.03
2022-10-26T01:11:51.923Z,174.92
2022-10-26T01:28:27.551Z,172.39
2022-10-26T01:33:59.694Z,171.51
2022-10-26T01:39:31.626Z,172.93
2022-10-26T01:45:03.711Z,175.84
2022-10-26T01:50:35.681Z,177.34
2022-10-26T01:56:10.163Z,181.39
2022-10-26T02:01:41.782Z,180.99
2022-10-26T02:23:49.625Z,177.34
2022-10-26T02:29:21.254Z,181.58
2022-10-26T02:34:53.274Z,183.18
2022-10-26T02:45:56.877Z,178.86
2022-10-26T02:51:28.437Z,177.15
2022-10-26T03:02:32.382Z,175.10
2022-10-26T03:13:36.241Z,180.40
2022-10-26T03:19:08.145Z,183.78
2022-10-26T03:24:40.214Z,183.99
2022-10-26T03:30:12.063Z,186.45
2022-10-26T03:35:45.677Z,179.63
2022-10-26T03:41:17.631Z,181.78
2022-10-26T03:46:49.565Z,178.29
2022-10-26T03:52:21.838Z,177.53
2022-10-26T03:57:53.897Z,178.67
2022-10-26T04:05:38.203Z,183.78
2022-10-26T04:11:10.126Z,183.18
2022-10-26T04:16:42.031Z,178.86
2022-10-26T04:19:06.220Z,176.40
2022-10-26T04:24:38.102Z,174.01
2022-10-26T04:30:09.929Z,172.57
2022-10-26T04:35:41.520Z,170.46
2022-10-26T04:41:13.281Z,170.28
2022-10-26T04:46:45.254Z,168.90
2022-10-26T04:52:17.158Z,168.39
2022-10-26T04:57:49.286Z,168.73
2022-10-26T05:03:21.092Z,169.07
2022-10-26T05:08:53.004Z,167.04
2022-10-26T05:14:24.550Z,165.39
2022-10-26T05:19:55.965Z,167.71
2022-10-26T05:25:27.926Z,167.38
2022-10-26T05:31:05.868Z,168.05
2022-10-26T05:36:37.718Z,173.83
2022-10-26T05:42:09.579Z,171.15
2022-10-26T05:47:41.569Z,171.68
2022-10-26T05:53:13.449Z,169.42
2022-10-26T05:58:45.319Z,169.24
2022-10-26T06:04:17.624Z,167.21
2022-10-26T06:09:49.326Z,166.38
2022-10-26T06:15:21.040Z,170.11
2022-10-26T06:20:52.753Z,172.57
2022-10-26T06:26:24.601Z,171.68
2022-10-26T06:32:02.698Z,172.21
2022-10-26T06:37:34.964Z,172.93
2022-10-26T06:43:07.035Z,172.39
2022-10-26T06:48:38.870Z,168.56
2022-10-26T06:54:16.297Z,169.07
2022-10-26T06:59:48.242Z,167.21
2022-10-26T07:05:20.189Z,166.88
2022-10-26T07:10:52.158Z,169.42
2022-10-26T07:16:23.824Z,171.86
2022-10-26T07:21:55.703Z,173.83
2022-10-26T07:27:27.521Z,175.10
2022-10-26T07:38:28.825Z,173.11
2022-10-26T07:44:00.905Z,169.76
2022-10-26T07:49:33.139Z,168.39
2022-10-26T07:55:04.858Z,169.42
2022-10-26T08:00:36.848Z,168.05
2022-10-26T08:06:08.545Z,168.56
2022-10-26T08:11:40.169Z,168.05
2022-10-26T08:17:12.085Z,166.04
2022-10-26T08:22:43.936Z,165.22
2022-10-26T08:28:16.022Z,164.73
2022-10-26T08:33:49.565Z,165.88
2022-10-26T08:39:21.880Z,160.92
2022-10-26T08:44:53.584Z,157.88
2022-10-26T08:50:25.440Z,158.93
2022-10-26T08:55:57.151Z,157.13
2022-10-26T09:01:29.272Z,155.23
2022-10-26T09:07:01.553Z,153.52
2022-10-26T09:12:33.356Z,150.74
2022-10-26T09:18:06.299Z,147.68
2022-10-26T09:34:38.007Z,134.58
2022-10-26T09:40:10.181Z,134.58
2022-10-26T09:45:42.368Z,131.92
2022-10-26T09:51:14.378Z,129.06
2022-10-26T09:56:46.380Z,125.56
2022-10-26T10:07:47.860Z,121.28
2022-10-26T10:13:19.615Z,118.10
2022-10-26T10:18:51.417Z,117.19
2022-10-26T10:24:25.887Z,114.06
2022-10-26T10:35:29.709Z,114.30
2022-10-26T10:46:33.798Z,113.14
2022-10-26T10:52:06.170Z,110.22
2022-10-26T10:57:38.078Z,111.77
2022-10-26T11:08:42.382Z,108.64
2022-10-26T11:14:14.621Z,108.57
2022-10-26T11:19:46.895Z,108.50
2022-10-26T11:25:18.881Z,106.63
2022-10-26T11:30:50.981Z,107.52
2022-10-26T11:36:23.046Z,108.64
2022-10-26T11:41:54.844Z,107.66
2022-10-26T11:47:26.537Z,107.32
2022-10-26T12:04:02.324Z,109.21
2022-10-26T12:15:06.410Z,109.50
2022-10-26T12:20:38.275Z,108.29
2022-10-26T12:26:10.324Z,109.28
2022-10-26T12:31:48.375Z,109.36
2022-10-26T12:42:54.228Z,109.86
2022-10-26T12:53:57.815Z,110.44
2022-10-26T13:10:33.219Z,110.51
2022-10-26T13:16:05.062Z,110.81
2022-10-26T13:21:36.956Z,110.44
2022-10-26T13:27:08.737Z,109.21
2022-10-26T13:32:40.414Z,109.36
2022-10-26T13:38:12.057Z,109.50
2022-10-26T13:43:43.920Z,107.94
2022-10-26T13:49:15.565Z,108.86
2022-10-26T13:54:47.463Z,109.00
2022-10-26T14:00:23.363Z,110.00
2022-10-26T14:11:26.993Z,109.43
2022-10-26T14:16:58.722Z,109.43
2022-10-26T14:22:30.837Z,109.36
2022-10-26T14:28:12.084Z,108.50
2022-10-26T14:33:44.397Z,108.93
2022-10-26T14:39:16.238Z,108.36
2022-10-26T14:44:48.149Z,109.00
2022-10-26T14:50:19.851Z,109.00
2022-10-26T14:55:51.636Z,109.36
2022-10-26T15:01:23.820Z,109.36
2022-10-26T15:06:55.801Z,109.64
2022-10-26T15:12:27.556Z,110.44
2022-10-26T15:18:00.043Z,109.43
2022-10-26T15:23:31.886Z,110.22
2022-10-26T15:29:03.773Z,109.79
2022-10-26T15:34:36.178Z,109.86
2022-10-26T15:40:08.213Z,110.51
2022-10-26T15:45:40.178Z,110.51
2022-10-26T15:51:12.025Z,110.37
2022-10-26T16:02:14.233Z,110.59
2022-10-26T16:07:45.923Z,111.70
2022-10-26T16:13:17.774Z,112.83
2022-10-26T16:18:51.106Z,113.06
2022-10-26T16:24:21.911Z,113.29
2022-10-26T16:29:53.795Z,112.30
2022-10-26T16:35:25.976Z,112.68
2022-10-26T16:40:58.006Z,113.29
2022-10-26T16:46:30.055Z,113.75
2022-10-26T16:52:02.044Z,114.38
2022-10-26T16:57:33.760Z,115.32
2022-10-26T17:03:05.806Z,115.40
2022-10-26T17:08:38.182Z,116.05
2022-10-26T17:14:10.438Z,116.70
2022-10-26T17:19:42.714Z,116.70
2022-10-26T17:25:15.388Z,117.52
2022-10-26T17:30:47.415Z,118.18
2022-10-26T17:33:00.200Z,122.97
2022-10-26T17:38:31.923Z,123.79
2022-10-26T17:44:03.907Z,122.43
2022-10-26T17:49:36.405Z,123.06
2022-10-26T17:55:07.807Z,123.89
2022-10-26T18:00:39.846Z,123.43
2022-10-26T18:06:11.606Z,125.28
2022-10-26T18:11:43.871Z,122.52
2022-10-26T18:17:16.134Z,123.15
2022-10-26T18:22:48.409Z,123.89
2022-10-26T18:28:20.159Z,124.72
2022-10-26T18:33:52.189Z,126.23
2022-10-26T18:39:24.383Z,127.00
2022-10-26T18:50:28.208Z,129.06
2022-10-26T18:56:00.183Z,132.02
2022-10-26T19:01:32.490Z,130.68
2022-10-26T19:07:04.548Z,133.71
2022-10-26T19:12:36.400Z,134.14
2022-10-26T19:18:08.080Z,135.01
2022-10-26T19:23:39.933Z,136.34
2022-10-26T19:29:11.689Z,137.57
2022-10-26T19:34:43.276Z,138.95
2022-10-26T19:40:15.245Z,139.41
2022-10-26T19:45:46.922Z,140.70
2022-10-26T19:51:18.776Z,140.82
2022-10-26T19:56:50.599Z,142.26
2022-10-26T20:02:22.629Z,143.98
2022-10-26T20:07:54.643Z,145.24
2022-10-26T20:13:26.420Z,146.51
2022-10-26T20:18:58.258Z,148.33
2022-10-26T20:24:29.973Z,149.53
2022-10-26T20:30:01.626Z,151.15
2022-10-26T20:35:33.390Z,152.12
2022-10-26T20:41:07.915Z,153.94
2022-10-26T20:46:37.746Z,154.37
2022-10-26T20:52:20.780Z,156.99
2022-10-26T20:57:41.023Z,158.03
2022-10-26T21:03:12.958Z,159.54
2022-10-26T21:08:44.619Z,160.61
2022-10-26T21:14:16.583Z,161.08
2022-10-26T21:19:48.421Z,160.61
2022-10-26T21:25:20.176Z,161.23
2022-10-26T21:33:13.078Z,162.96
2022-10-26T21:38:44.767Z,161.70
2022-10-26T21:44:25.982Z,162.49
2022-10-26T21:49:48.394Z,162.65
2022-10-26T21:55:20.194Z,161.39
2022-10-26T22:00:52.063Z,163.60
2022-10-26T22:06:23.947Z,165.06
2022-10-26T22:11:55.539Z,165.55
2022-10-26T22:17:27.080Z,165.71
2022-10-26T22:23:00.446Z,168.22
2022-10-26T22:28:33.112Z,169.76
2022-10-26T22:34:07.334Z,170.46
2022-10-26T22:39:35.770Z,171.33
2022-10-26T22:45:07.586Z,173.47
2022-10-26T22:50:39.569Z,171.51
2022-10-26T22:56:11.033Z,170.80
2022-10-26T23:01:42.755Z,172.04
2022-10-26T23:07:14.568Z,173.29
2022-10-26T23:15:07.280Z,171.86
2022-10-26T23:20:39.241Z,173.83
2022-10-26T23:26:10.839Z,171.86
2022-10-26T23:31:42.603Z,175.10
2022-10-26T23:37:14.757Z,174.74
2022-10-26T23:42:46.502Z,175.84
2022-10-26T23:48:18.221Z,176.21
2022-10-26T23:53:50.229Z,175.10
2022-10-26T23:59:22.046Z,177.15
